Time;durP1;ratioP1;P1;durP2;ratioP2;P2;SDS_P1;SDS_P2;PMS_P1;PMS_P2;Temp;Humidity;BMP_temperature;BMP_pressure;BME280_temperature;BME280_humidity;BME280_pressure;Samples;Min_cycle;Max_cycle;Signal;HPM_P1;HPM_P2
2022/03/05 00:01:59;;;;;;;62.70;8.27;;;;;;;;;;5019915;28;20192;-72
2022/03/05 00:04:25;;;;;;;70.47;9.03;;;;;;;;;;5038577;28;20198;-69
2022/03/05 00:06:52;;;;;;;73.97;9.43;;;;;;;;;;5041423;28;20222;-70
2022/03/05 00:09:18;;;;;;;51.37;6.73;;;;;;;;;;5043851;28;20184;-70
2022/03/05 00:11:44;;;;;;;73.00;9.43;;;;;;;;;;5038362;28;20192;-70
2022/03/05 00:14:10;;;;;;;75.63;9.80;;;;;;;;;;5036795;28;20215;-70
2022/03/05 00:16:36;;;;;;;53.13;6.93;;;;;;;;;;5046139;28;20191;-70
2022/03/05 00:19:02;;;;;;;56.50;7.77;;;;;;;;;;5041637;28;20184;-69
2022/03/05 00:21:28;;;;;;;78.80;10.40;;;;;;;;;;5035760;28;20196;-69
2022/03/05 00:23:54;;;;;;;46.37;6.50;;;;;;;;;;5043502;28;20196;-69
2022/03/05 00:26:20;;;;;;;54.97;7.53;;;;;;;;;;5037278;28;20625;-70
2022/03/05 00:28:46;;;;;;;61.30;8.30;;;;;;;;;;5042110;28;20191;-69
2022/03/05 00:31:12;;;;;;;58.23;7.97;;;;;;;;;;5023936;28;20183;-70
2022/03/05 00:33:38;;;;;;;77.77;10.47;;;;;;;;;;5039946;28;20211;-70
2022/03/05 00:36:04;;;;;;;75.90;10.20;;;;;;;;;;5036485;28;20194;-69
2022/03/05 00:38:30;;;;;;;57.53;7.87;;;;;;;;;;5023232;28;20180;-70
2022/03/05 00:40:56;;;;;;;78.47;10.43;;;;;;;;;;5037057;28;21058;-70
2022/03/05 00:43:22;;;;;;;73.57;9.93;;;;;;;;;;5021899;28;20230;-69
2022/03/05 00:45:48;;;;;;;92.30;12.07;;;;;;;;;;5038681;28;20223;-71
2022/03/05 00:48:14;;;;;;;66.43;8.80;;;;;;;;;;5022507;28;20179;-70
2022/03/05 00:50:40;;;;;;;74.00;9.90;;;;;;;;;;5037531;28;20191;-70
2022/03/05 00:53:06;;;;;;;38.87;5.50;;;;;;;;;;5023667;28;20669;-70
2022/03/05 00:55:32;;;;;;;68.23;9.13;;;;;;;;;;5039776;28;20176;-69
2022/03/05 00:57:59;;;;;;;68.83;9.10;;;;;;;;;;5017995;28;20190;-70
2022/03/05 01:00:25;;;;;;;56.93;7.80;;;;;;;;;;5040947;28;20270;-70
2022/03/05 01:02:52;;;;;;;62.77;8.47;;;;;;;;;;5041451;28;20318;-70
2022/03/05 01:05:17;;;;;;;72.47;9.60;;;;;;;;;;5037676;28;20267;-70
2022/03/05 01:07:43;;;;;;;80.47;10.57;;;;;;;;;;5040509;28;20707;-69
2022/03/05 01:10:09;;;;;;;76.03;9.87;;;;;;;;;;5039632;28;20186;-70
2022/03/05 01:12:36;;;;;;;58.77;7.77;;;;;;;;;;5017094;28;20215;-70
2022/03/05 01:15:02;;;;;;;56.07;7.43;;;;;;;;;;5039919;28;20262;-70
2022/03/05 01:17:28;;;;;;;40.13;5.60;;;;;;;;;;5043024;28;20188;-70
2022/03/05 01:19:53;;;;;;;75.93;9.77;;;;;;;;;;5039293;28;20220;-69
2022/03/05 01:22:19;;;;;;;66.93;8.83;;;;;;;;;;5036231;28;20214;-71
2022/03/05 01:24:45;;;;;;;68.63;8.90;;;;;;;;;;5040960;28;20203;-70
2022/03/05 01:27:11;;;;;;;69.57;8.97;;;;;;;;;;5018944;28;20203;-70
2022/03/05 01:29:37;;;;;;;70.37;9.03;;;;;;;;;;5039441;28;20190;-70
2022/03/05 01:32:04;;;;;;;52.77;7.10;;;;;;;;;;5043742;28;20180;-70
2022/03/05 01:34:30;;;;;;;71.20;9.17;;;;;;;;;;5038878;28;20194;-69
2022/03/05 01:36:55;;;;;;;65.50;8.37;;;;;;;;;;5017758;28;20191;-70
2022/03/05 01:39:21;;;;;;;55.53;7.20;;;;;;;;;;5040506;28;20187;-70
2022/03/05 01:41:49;;;;;;;78.10;9.90;;;;;;;;;;5032111;28;20236;-70
2022/03/05 01:44:15;;;;;;;72.23;9.03;;;;;;;;;;5029749;28;20211;-70
2022/03/05 01:46:41;;;;;;;64.73;8.13;;;;;;;;;;5018356;28;20211;-70
2022/03/05 01:49:08;;;;;;;86.10;10.80;;;;;;;;;;5037487;28;20781;-70
2022/03/05 01:51:35;;;;;;;64.33;8.07;;;;;;;;;;5038648;28;21121;-70
2022/03/05 01:54:01;;;;;;;62.03;7.97;;;;;;;;;;5013541;28;20248;-73
2022/03/05 01:56:27;;;;;;;61.60;7.90;;;;;;;;;;5020952;28;20221;-70
2022/03/05 01:58:54;;;;;;;109.57;13.30;;;;;;;;;;5038277;28;20183;-70
2022/03/05 02:01:24;;;;;;;57.23;7.37;;;;;;;;;;5038084;28;20183;-70
2022/03/05 02:03:51;;;;;;;121.87;14.83;;;;;;;;;;5031918;28;20203;-71
2022/03/05 02:06:17;;;;;;;73.07;9.37;;;;;;;;;;5036346;28;20242;-70
2022/03/05 02:08:43;;;;;;;82.40;10.43;;;;;;;;;;5039622;28;20190;-70
2022/03/05 02:11:09;;;;;;;73.93;9.47;;;;;;;;;;5039639;28;20187;-70
2022/03/05 02:13:36;;;;;;;93.80;11.67;;;;;;;;;;5034412;28;20215;-71
2022/03/05 02:16:02;;;;;;;68.17;8.83;;;;;;;;;;5020270;28;20199;-70
2022/03/05 02:18:28;;;;;;;102.67;12.77;;;;;;;;;;5037288;28;20207;-70
2022/03/05 02:20:55;;;;;;;92.43;11.63;;;;;;;;;;5039773;28;20249;-70
2022/03/05 02:23:21;;;;;;;89.43;11.17;;;;;;;;;;5040864;28;20580;-70
2022/03/05 02:25:57;;;;;;;106.03;13.13;;;;;;;;;;5025994;28;20214;-70
2022/03/05 02:28:23;;;;;;;58.93;7.53;;;;;;;;;;5025493;28;20190;-70
2022/03/05 02:30:49;;;;;;;101.37;12.67;;;;;;;;;;5020121;28;20719;-70
2022/03/05 02:33:16;;;;;;;116.43;14.17;;;;;;;;;;5012726;28;20294;-70
2022/03/05 02:35:45;;;;;;;77.80;9.90;;;;;;;;;;5041955;28;20300;-71
2022/03/05 02:38:12;;;;;;;61.43;8.10;;;;;;;;;;5041644;28;20640;-70
2022/03/05 02:40:38;;;;;;;97.27;12.37;;;;;;;;;;5036512;28;20257;-70
2022/03/05 02:43:04;;;;;;;67.60;8.73;;;;;;;;;;5042541;28;20207;-71
2022/03/05 02:45:30;;;;;;;60.97;7.97;;;;;;;;;;5020325;28;20758;-70
2022/03/05 02:47:56;;;;;;;48.30;6.40;;;;;;;;;;5042794;28;20271;-70
2022/03/05 02:50:22;;;;;;;33.50;4.77;;;;;;;;;;5037694;28;20398;-70
2022/03/05 02:52:48;;;;;;;105.30;13.03;;;;;;;;;;5035736;28;20199;-70
2022/03/05 02:55:14;;;;;;;64.97;8.30;;;;;;;;;;5040966;28;20183;-70
2022/03/05 02:57:40;;;;;;;68.33;8.87;;;;;;;;;;5020260;28;20184;-70
2022/03/05 03:00:06;;;;;;;51.37;6.90;;;;;;;;;;5037676;28;20196;-71
2022/03/05 03:02:32;;;;;;;69.63;8.93;;;;;;;;;;5032024;28;20278;-70
2022/03/05 03:04:58;;;;;;;85.17;10.87;;;;;;;;;;5017735;28;20191;-70
2022/03/05 03:07:24;;;;;;;44.13;5.93;;;;;;;;;;5038353;28;20218;-70
2022/03/05 03:09:50;;;;;;;75.67;9.67;;;;;;;;;;5041392;28;20191;-70
2022/03/05 03:12:16;;;;;;;46.10;6.23;;;;;;;;;;5037787;28;21060;-70
2022/03/05 03:14:42;;;;;;;66.10;8.70;;;;;;;;;;5024491;28;21025;-70
2022/03/05 03:17:07;;;;;;;33.70;4.70;;;;;;;;;;5041609;28;20192;-70
2022/03/05 03:19:33;;;;;;;47.63;6.47;;;;;;;;;;5017614;28;20195;-70
2022/03/05 03:21:59;;;;;;;46.73;6.40;;;;;;;;;;5039336;28;20635;-71
2022/03/05 03:24:25;;;;;;;40.70;5.53;;;;;;;;;;5040504;28;20188;-70
2022/03/05 03:26:51;;;;;;;57.97;7.60;;;;;;;;;;5037824;28;20211;-70
2022/03/05 03:29:17;;;;;;;39.53;5.50;;;;;;;;;;5042427;28;20207;-70
2022/03/05 03:31:43;;;;;;;65.97;8.53;;;;;;;;;;5021411;28;20649;-70
2022/03/05 03:34:09;;;;;;;60.43;8.00;;;;;;;;;;5037981;28;20697;-70
2022/03/05 03:36:35;;;;;;;44.47;6.03;;;;;;;;;;5035276;28;20179;-71
2022/03/05 03:39:01;;;;;;;75.53;9.83;;;;;;;;;;5038664;28;20198;-70
2022/03/05 03:41:27;;;;;;;79.70;10.23;;;;;;;;;;5034560;28;20192;-71
2022/03/05 03:43:53;;;;;;;102.27;12.83;;;;;;;;;;5041981;28;20203;-71
2022/03/05 03:46:19;;;;;;;92.93;11.63;;;;;;;;;;5037515;28;20258;-70
2022/03/05 03:48:44;;;;;;;72.80;9.37;;;;;;;;;;5040608;28;20245;-70
2022/03/05 03:51:10;;;;;;;45.70;6.07;;;;;;;;;;5039071;28;20267;-70
2022/03/05 03:53:36;;;;;;;44.57;5.90;;;;;;;;;;5036365;28;20211;-70
2022/03/05 03:56:03;;;;;;;58.97;7.60;;;;;;;;;;5037055;28;20188;-70
2022/03/05 03:58:28;;;;;;;78.60;9.73;;;;;;;;;;5039390;28;20198;-70
2022/03/05 04:00:54;;;;;;;77.37;9.77;;;;;;;;;;5014185;28;21038;-70
2022/03/05 04:03:20;;;;;;;48.27;6.30;;;;;;;;;;5043275;28;20200;-70
2022/03/05 04:05:46;;;;;;;53.30;6.90;;;;;;;;;;5044918;28;20294;-70
2022/03/05 04:10:57;;;;;;;53.57;6.90;;;;;;;;;;5035963;28;20429;-70
2022/03/05 04:13:23;;;;;;;66.27;8.50;;;;;;;;;;5017427;28;20219;-70
2022/03/05 04:18:19;;;;;;;78.13;13.27;;;;;;;;;;5025665;28;20285;-54
2022/03/05 04:20:44;;;;;;;54.67;10.00;;;;;;;;;;5035222;28;20192;-54
2022/03/05 04:23:11;;;;;;;59.80;10.90;;;;;;;;;;5030250;28;20260;-54
2022/03/05 04:25:36;;;;;;;75.53;13.33;;;;;;;;;;5030048;28;20218;-54
2022/03/05 04:28:03;;;;;;;67.17;12.23;;;;;;;;;;5028550;28;20191;-54
2022/03/05 04:30:28;;;;;;;67.67;11.73;;;;;;;;;;5027220;28;20260;-54
2022/03/05 04:32:54;;;;;;;67.20;12.10;;;;;;;;;;5023076;28;20260;-54
2022/03/05 04:35:20;;;;;;;57.33;10.00;;;;;;;;;;5033288;28;20204;-54
2022/03/05 04:37:47;;;;;;;50.90;9.20;;;;;;;;;;5012292;28;20236;-54
2022/03/05 04:40:13;;;;;;;72.47;12.57;;;;;;;;;;5027659;28;21857;-54
2022/03/05 04:42:38;;;;;;;53.23;9.40;;;;;;;;;;5031596;28;20183;-54
2022/03/05 04:45:08;;;;;;;66.67;11.90;;;;;;;;;;5028198;28;20298;-54
2022/03/05 04:47:34;;;;;;;52.57;9.50;;;;;;;;;;5030738;28;20251;-54
2022/03/05 04:50:00;;;;;;;69.03;11.80;;;;;;;;;;5021280;28;20211;-54
2022/03/05 04:52:26;;;;;;;89.97;15.83;;;;;;;;;;5024901;28;20222;-54
2022/03/05 04:54:52;;;;;;;59.50;10.90;;;;;;;;;;5023935;28;20326;-54
2022/03/05 04:57:19;;;;;;;58.57;10.50;;;;;;;;;;5024377;28;20192;-54
2022/03/05 04:59:44;;;;;;;66.17;11.50;;;;;;;;;;5010499;28;20293;-54
2022/03/05 05:02:10;;;;;;;67.13;12.03;;;;;;;;;;5029043;28;20627;-54
2022/03/05 05:04:36;;;;;;;56.37;10.77;;;;;;;;;;5024468;28;20231;-54
2022/03/05 05:07:02;;;;;;;60.77;11.20;;;;;;;;;;5031276;28;20227;-54
2022/03/05 05:09:28;;;;;;;46.23;8.47;;;;;;;;;;5032885;28;20194;-54
2022/03/05 05:11:54;;;;;;;56.43;10.30;;;;;;;;;;5021409;28;20184;-54
2022/03/05 05:14:20;;;;;;;71.70;12.23;;;;;;;;;;5028393;28;20575;-54
2022/03/05 05:16:46;;;;;;;74.70;13.37;;;;;;;;;;5024908;28;20230;-54
2022/03/05 05:19:24;;;;;;;72.27;12.47;;;;;;;;;;5024111;28;20188;-54
2022/03/05 05:21:50;;;;;;;62.20;11.00;;;;;;;;;;5027081;28;20272;-54
2022/03/05 05:24:16;;;;;;;29.77;6.53;;;;;;;;;;5030067;28;20537;-54
2022/03/05 05:26:42;;;;;;;48.73;9.23;;;;;;;;;;5025206;28;20348;-54
2022/03/05 05:29:08;;;;;;;38.30;7.77;;;;;;;;;;5031546;28;20357;-54
2022/03/05 05:31:34;;;;;;;70.43;12.43;;;;;;;;;;5033840;28;20198;-54
2022/03/05 05:34:00;;;;;;;63.40;11.37;;;;;;;;;;5024641;28;20612;-54
2022/03/05 05:36:26;;;;;;;65.70;11.87;;;;;;;;;;5022841;28;20183;-54
2022/03/05 05:38:52;;;;;;;48.70;9.53;;;;;;;;;;5028679;28;20182;-54
2022/03/05 05:41:18;;;;;;;50.17;9.33;;;;;;;;;;5026571;28;20287;-54
2022/03/05 05:43:44;;;;;;;55.13;10.23;;;;;;;;;;5027359;28;20196;-54
2022/03/05 05:46:13;;;;;;;61.70;11.10;;;;;;;;;;5028040;28;20648;-54
2022/03/05 05:48:39;;;;;;;60.73;10.73;;;;;;;;;;5026694;28;20517;-54
2022/03/05 05:51:05;;;;;;;64.37;11.60;;;;;;;;;;5024716;28;20176;-54
2022/03/05 05:53:31;;;;;;;69.50;11.70;;;;;;;;;;5030083;28;20270;-54
2022/03/05 05:55:57;;;;;;;81.83;13.93;;;;;;;;;;5025812;28;20944;-54
2022/03/05 05:58:23;;;;;;;47.40;8.77;;;;;;;;;;5030023;28;20190;-54
2022/03/05 06:00:50;;;;;;;65.50;11.57;;;;;;;;;;5029577;28;20279;-54
2022/03/05 06:03:16;;;;;;;99.07;16.67;;;;;;;;;;5029005;28;20627;-54
2022/03/05 06:05:42;;;;;;;69.30;12.27;;;;;;;;;;5021965;28;20221;-54
2022/03/05 06:08:08;;;;;;;70.40;12.77;;;;;;;;;;5026748;28;20183;-54
2022/03/05 06:10:34;;;;;;;85.10;14.67;;;;;;;;;;5028691;28;20191;-54
2022/03/05 06:13:00;;;;;;;54.57;10.23;;;;;;;;;;5028168;28;20264;-52
2022/03/05 06:15:26;;;;;;;57.83;10.40;;;;;;;;;;5029256;28;20207;-52
2022/03/05 06:17:54;;;;;;;65.77;11.47;;;;;;;;;;5028574;28;20555;-52
2022/03/05 06:20:20;;;;;;;62.93;11.57;;;;;;;;;;5006771;28;20218;-52
2022/03/05 06:22:46;;;;;;;59.37;10.70;;;;;;;;;;5027907;28;20366;-52
2022/03/05 06:25:12;;;;;;;73.43;12.67;;;;;;;;;;5027319;28;20541;-52
2022/03/05 06:27:38;;;;;;;57.47;10.20;;;;;;;;;;5027554;28;20496;-52
2022/03/05 06:30:04;;;;;;;74.73;12.83;;;;;;;;;;5029192;28;20231;-52
2022/03/05 06:32:31;;;;;;;52.43;9.80;;;;;;;;;;5028956;28;20172;-52
2022/03/05 06:34:56;;;;;;;91.70;15.80;;;;;;;;;;5025247;28;20283;-52
2022/03/05 06:37:23;;;;;;;59.87;10.50;;;;;;;;;;5022808;28;20186;-52
2022/03/05 06:39:49;;;;;;;55.93;9.83;;;;;;;;;;5033392;28;20196;-52
2022/03/05 06:42:15;;;;;;;79.83;13.73;;;;;;;;;;5018787;28;20523;-52
2022/03/05 06:44:41;;;;;;;60.73;11.13;;;;;;;;;;5026882;28;20215;-54
2022/03/05 06:47:07;;;;;;;55.10;10.07;;;;;;;;;;5031439;28;20257;-55
2022/03/05 06:49:33;;;;;;;74.10;13.40;;;;;;;;;;5025535;28;20649;-56
2022/03/05 06:51:59;;;;;;;68.17;12.03;;;;;;;;;;5027779;28;20260;-56
2022/03/05 06:54:26;;;;;;;89.50;14.70;;;;;;;;;;5022455;28;20664;-57
2022/03/05 06:56:52;;;;;;;91.00;15.07;;;;;;;;;;5001446;28;20653;-57
2022/03/05 06:59:18;;;;;;;231.63;36.10;;;;;;;;;;5008022;28;20191;-57
2022/03/05 07:01:43;;;;;;;64.27;10.83;;;;;;;;;;5020765;28;20595;-55
2022/03/05 07:04:10;;;;;;;69.73;12.20;;;;;;;;;;5024292;28;20196;-56
2022/03/05 07:06:37;;;;;;;52.43;9.23;;;;;;;;;;5026541;28;20652;-55
2022/03/05 07:09:03;;;;;;;104.23;17.80;;;;;;;;;;5022407;28;20210;-56
2022/03/05 07:11:29;;;;;;;58.73;10.83;;;;;;;;;;5018551;28;20520;-56
2022/03/05 07:13:55;;;;;;;70.67;12.13;;;;;;;;;;5006220;28;20635;-56
2022/03/05 07:16:21;;;;;;;95.37;16.00;;;;;;;;;;5013378;28;20773;-57
2022/03/05 07:18:47;;;;;;;122.83;20.03;;;;;;;;;;5014904;28;20187;-56
2022/03/05 07:21:13;;;;;;;80.57;13.70;;;;;;;;;;5002773;28;20611;-57
2022/03/05 07:23:39;;;;;;;91.93;15.73;;;;;;;;;;5020067;28;20207;-56
2022/03/05 07:26:06;;;;;;;93.93;15.57;;;;;;;;;;4992495;28;20214;-55
2022/03/05 07:28:32;;;;;;;68.47;11.60;;;;;;;;;;5026007;28;20185;-54
2022/03/05 07:30:58;;;;;;;95.60;15.73;;;;;;;;;;5020188;28;20180;-57
2022/03/05 07:33:26;;;;;;;117.40;19.50;;;;;;;;;;5025934;28;20552;-55
2022/03/05 07:35:52;;;;;;;102.50;16.97;;;;;;;;;;5017337;28;20338;-55
2022/03/05 07:38:18;;;;;;;134.87;21.77;;;;;;;;;;5020585;28;20267;-54
2022/03/05 07:40:44;;;;;;;119.20;20.17;;;;;;;;;;5011683;28;20188;-55
2022/03/05 07:43:12;;;;;;;70.83;12.00;;;;;;;;;;5014820;28;20187;-54
2022/03/05 07:45:38;;;;;;;79.73;13.50;;;;;;;;;;5016320;28;20445;-53
2022/03/05 07:48:04;;;;;;;159.23;24.93;;;;;;;;;;4995965;28;20265;-51
2022/03/05 07:50:30;;;;;;;96.40;15.77;;;;;;;;;;5012765;28;20271;-52
2022/03/05 07:52:56;;;;;;;88.63;14.43;;;;;;;;;;5020360;28;20179;-52
2022/03/05 07:55:22;;;;;;;121.07;19.70;;;;;;;;;;5016620;28;20207;-52
2022/03/05 07:57:48;;;;;;;80.03;13.60;;;;;;;;;;5019163;28;20439;-52
2022/03/05 08:00:14;;;;;;;99.30;16.50;;;;;;;;;;5026483;28;20253;-52
2022/03/05 08:02:41;;;;;;;72.93;12.83;;;;;;;;;;5026341;28;20196;-52
2022/03/05 08:05:07;;;;;;;85.47;14.53;;;;;;;;;;5016518;28;20291;-53
2022/03/05 08:07:33;;;;;;;75.53;12.80;;;;;;;;;;5027840;28;20303;-53
2022/03/05 08:09:59;;;;;;;61.73;11.10;;;;;;;;;;5033193;28;20298;-52
2022/03/05 08:12:25;;;;;;;52.60;9.57;;;;;;;;;;5023871;28;20210;-52
2022/03/05 08:14:51;;;;;;;71.60;12.23;;;;;;;;;;5029054;28;20443;-52
2022/03/05 08:17:17;;;;;;;90.17;15.07;;;;;;;;;;5020881;28;20215;-53
2022/03/05 08:19:43;;;;;;;118.77;18.47;;;;;;;;;;5014073;28;20484;-55
2022/03/05 08:22:09;;;;;;;90.47;15.00;;;;;;;;;;5030031;28;20191;-58
2022/03/05 08:24:35;;;;;;;73.73;13.13;;;;;;;;;;5028610;28;20814;-57
2022/03/05 08:27:01;;;;;;;60.57;10.83;;;;;;;;;;5013950;28;20291;-55
2022/03/05 08:29:27;;;;;;;102.90;17.37;;;;;;;;;;5012295;28;20188;-55
2022/03/05 08:31:53;;;;;;;52.17;9.97;;;;;;;;;;5031224;28;20179;-55
2022/03/05 08:34:19;;;;;;;114.13;18.77;;;;;;;;;;5019167;28;20223;-56
2022/03/05 08:36:47;;;;;;;81.30;14.23;;;;;;;;;;5023768;28;20190;-55
2022/03/05 08:39:13;;;;;;;82.27;13.60;;;;;;;;;;5019513;28;20302;-55
2022/03/05 08:41:39;;;;;;;73.47;13.40;;;;;;;;;;5006114;28;20196;-58
2022/03/05 08:44:05;;;;;;;60.10;10.87;;;;;;;;;;5027609;28;20515;-55
2022/03/05 08:46:31;;;;;;;62.30;11.30;;;;;;;;;;5025028;28;20277;-56
2022/03/05 08:48:57;;;;;;;107.90;17.63;;;;;;;;;;5007594;28;20455;-57
2022/03/05 08:51:23;;;;;;;72.63;11.57;;;;;;;;;;5028107;28;20194;-55
2022/03/05 08:53:49;;;;;;;84.60;14.03;;;;;;;;;;5009257;28;20188;-59
2022/03/05 08:56:15;;;;;;;73.20;12.73;;;;;;;;;;5024955;28;20626;-55
2022/03/05 08:58:41;;;;;;;148.97;23.63;;;;;;;;;;5009667;28;20188;-59
2022/03/05 09:01:08;;;;;;;97.47;16.43;;;;;;;;;;5009695;28;20196;-56
2022/03/05 09:03:34;;;;;;;72.10;13.77;;;;;;;;;;5026431;28;20227;-58
2022/03/05 09:06:01;;;;;;;77.33;13.17;;;;;;;;;;5021875;28;20310;-58
2022/03/05 09:08:27;;;;;;;75.93;13.13;;;;;;;;;;5021240;28;20524;-56
2022/03/05 09:10:53;;;;;;;104.27;17.00;;;;;;;;;;5027049;28;20705;-58
2022/03/05 09:13:19;;;;;;;74.07;12.93;;;;;;;;;;5027624;28;20274;-55
2022/03/05 09:15:45;;;;;;;71.70;10.63;;;;;;;;;;5019386;28;20218;-61
2022/03/05 09:18:12;;;;;;;77.47;13.77;;;;;;;;;;5027820;28;20195;-59
2022/03/05 09:20:38;;;;;;;82.77;13.70;;;;;;;;;;5033411;28;20191;-56
2022/03/05 09:23:04;;;;;;;63.83;11.43;;;;;;;;;;5016144;28;20274;-55
2022/03/05 09:25:30;;;;;;;91.73;15.47;;;;;;;;;;5023426;28;20290;-56
2022/03/05 09:27:56;;;;;;;78.50;13.53;;;;;;;;;;5024308;28;20304;-56
2022/03/05 09:30:22;;;;;;;65.13;11.30;;;;;;;;;;5030441;28;20183;-57
2022/03/05 09:32:48;;;;;;;71.37;12.37;;;;;;;;;;5025922;28;20214;-57
2022/03/05 09:35:14;;;;;;;112.47;18.47;;;;;;;;;;5028449;28;20211;-56
2022/03/05 09:37:40;;;;;;;67.93;11.17;;;;;;;;;;5025866;28;20187;-56
2022/03/05 09:40:08;;;;;;;56.00;9.87;;;;;;;;;;5034609;28;20187;-59
2022/03/05 09:42:34;;;;;;;57.43;10.10;;;;;;;;;;5030707;28;20230;-55
2022/03/05 09:45:00;;;;;;;89.23;14.33;;;;;;;;;;5031333;28;20662;-55
2022/03/05 09:47:27;;;;;;;48.20;9.03;;;;;;;;;;5028617;28;20315;-57
2022/03/05 09:49:54;;;;;;;65.43;10.63;;;;;;;;;;5032628;28;20179;-59
2022/03/05 09:52:20;;;;;;;69.77;11.17;;;;;;;;;;5028589;28;20245;-60
2022/03/05 09:54:46;;;;;;;66.27;11.33;;;;;;;;;;5036323;28;20667;-57
2022/03/05 09:57:13;;;;;;;78.03;12.90;;;;;;;;;;5025359;28;20187;-57
2022/03/05 09:59:39;;;;;;;54.17;9.33;;;;;;;;;;5035719;28;20450;-60
2022/03/05 10:02:07;;;;;;;80.30;13.37;;;;;;;;;;5035800;28;20610;-57
2022/03/05 10:04:32;;;;;;;75.43;12.87;;;;;;;;;;5033337;28;20297;-55
2022/03/05 10:07:15;;;;;;;69.30;11.67;;;;;;;;;;5035453;28;20665;-55
2022/03/05 10:09:43;;;;;;;68.63;11.63;;;;;;;;;;5032476;28;20255;-58
2022/03/05 10:12:27;;;;;;;60.57;10.77;;;;;;;;;;5026996;28;20198;-57
2022/03/05 10:15:03;;;;;;;66.53;11.27;;;;;;;;;;5038010;28;20287;-56
2022/03/05 10:17:29;;;;;;;52.17;9.33;;;;;;;;;;5034156;28;20345;-56
2022/03/05 10:20:05;;;;;;;61.80;10.70;;;;;;;;;;5035675;28;20376;-58
2022/03/05 10:22:31;;;;;;;70.53;12.00;;;;;;;;;;5027416;28;20222;-57
2022/03/05 10:24:58;;;;;;;66.30;11.20;;;;;;;;;;5034041;28;20207;-56
2022/03/05 10:27:24;;;;;;;71.53;12.63;;;;;;;;;;5026556;28;20683;-56
2022/03/05 10:29:55;;;;;;;75.90;12.43;;;;;;;;;;5029521;28;20203;-59
2022/03/05 10:32:21;;;;;;;100.40;16.43;;;;;;;;;;5024930;28;20225;-56
2022/03/05 10:34:50;;;;;;;136.53;22.53;;;;;;;;;;5018775;28;20296;-58
2022/03/05 10:37:17;;;;;;;104.43;17.17;;;;;;;;;;5021435;28;21224;-57
2022/03/05 10:39:43;;;;;;;42.33;8.83;;;;;;;;;;5024985;28;20214;-60
2022/03/05 10:42:19;;;;;;;76.40;13.07;;;;;;;;;;5029116;28;20588;-58
2022/03/05 10:44:59;;;;;;;71.13;12.23;;;;;;;;;;5024818;28;20213;-58
2022/03/05 10:47:25;;;;;;;68.90;12.33;;;;;;;;;;5029016;28;20207;-56
2022/03/05 10:49:51;;;;;;;86.07;14.37;;;;;;;;;;5037550;28;20538;-57
2022/03/05 10:52:17;;;;;;;47.07;8.97;;;;;;;;;;5013744;28;20434;-55
2022/03/05 10:54:44;;;;;;;57.60;10.87;;;;;;;;;;5034685;28;20510;-55
2022/03/05 10:57:16;;;;;;;54.43;10.27;;;;;;;;;;5022112;28;20230;-58
2022/03/05 10:59:43;;;;;;;53.73;9.83;;;;;;;;;;5032065;28;20238;-59
2022/03/05 11:02:10;;;;;;;57.50;10.73;;;;;;;;;;5041566;28;20187;-56
2022/03/05 11:04:37;;;;;;;72.50;12.63;;;;;;;;;;5032331;28;20212;-58
2022/03/05 11:07:03;;;;;;;107.50;18.27;;;;;;;;;;4993133;28;20212;-56
2022/03/05 11:09:30;;;;;;;133.90;22.20;;;;;;;;;;5010671;28;20192;-54
2022/03/05 11:11:57;;;;;;;86.43;14.77;;;;;;;;;;5015909;28;20278;-57
2022/03/05 11:14:23;;;;;;;132.83;21.77;;;;;;;;;;5011688;28;20259;-55
2022/03/05 11:16:49;;;;;;;115.87;19.43;;;;;;;;;;5021076;28;20223;-55
2022/03/05 11:19:16;;;;;;;69.10;12.80;;;;;;;;;;5025136;28;20282;-59
2022/03/05 11:21:42;;;;;;;56.03;10.97;;;;;;;;;;5020181;28;20266;-55
2022/03/05 11:24:11;;;;;;;68.43;12.47;;;;;;;;;;5020201;28;20813;-55
2022/03/05 11:26:38;;;;;;;66.10;12.23;;;;;;;;;;5018286;28;20239;-58
2022/03/05 11:29:04;;;;;;;200.47;31.37;;;;;;;;;;4998229;28;20191;-58
2022/03/05 11:31:32;;;;;;;61.57;11.27;;;;;;;;;;5018151;28;20233;-56
2022/03/05 11:34:11;;;;;;;111.07;18.03;;;;;;;;;;5017929;28;20258;-58
2022/03/05 11:36:38;;;;;;;145.77;22.03;;;;;;;;;;5006396;28;20183;-57
2022/03/05 11:39:08;;;;;;;64.57;11.73;;;;;;;;;;5016721;28;20207;-55
2022/03/05 11:41:54;;;;;;;85.37;14.90;;;;;;;;;;5012421;28;20188;-54
2022/03/05 11:44:23;;;;;;;221.07;35.03;;;;;;;;;;5012627;28;20306;-58
2022/03/05 11:46:49;;;;;;;113.77;18.20;;;;;;;;;;4986176;28;20239;-57
2022/03/05 11:49:16;;;;;;;87.70;14.57;;;;;;;;;;5022386;28;20179;-55
2022/03/05 11:52:08;;;;;;;93.73;15.90;;;;;;;;;;5022814;28;20626;-55
2022/03/05 11:54:34;;;;;;;62.93;11.70;;;;;;;;;;5022835;28;20373;-56
2022/03/05 11:57:11;;;;;;;103.63;17.10;;;;;;;;;;5023212;28;20275;-56
2022/03/05 11:59:38;;;;;;;105.27;17.43;;;;;;;;;;5022324;28;20654;-56
2022/03/05 12:02:04;;;;;;;145.97;22.50;;;;;;;;;;5010491;28;20184;-55
2022/03/05 12:04:30;;;;;;;101.03;17.40;;;;;;;;;;5017985;28;21161;-55
2022/03/05 12:06:58;;;;;;;95.50;16.27;;;;;;;;;;5020840;28;20216;-56
2022/03/05 12:09:31;;;;;;;140.43;22.70;;;;;;;;;;5023733;28;20180;-57
2022/03/05 12:11:59;;;;;;;133.60;22.03;;;;;;;;;;5007190;28;20188;-56
2022/03/05 12:14:45;;;;;;;84.43;14.40;;;;;;;;;;5005187;28;20619;-55
2022/03/05 12:17:11;;;;;;;108.40;17.63;;;;;;;;;;5023710;28;20223;-57
2022/03/05 12:19:45;;;;;;;65.93;11.73;;;;;;;;;;5025462;28;20231;-56
2022/03/05 12:22:14;;;;;;;82.23;14.20;;;;;;;;;;5029716;28;20211;-55
2022/03/05 12:24:40;;;;;;;84.13;14.53;;;;;;;;;;5018258;28;20296;-56
2022/03/05 12:27:09;;;;;;;75.20;12.63;;;;;;;;;;5021011;28;20510;-55
2022/03/05 12:29:35;;;;;;;116.50;19.30;;;;;;;;;;5012066;28;20184;-56
2022/03/05 12:32:01;;;;;;;109.43;17.93;;;;;;;;;;5015492;28;20911;-57
2022/03/05 12:34:27;;;;;;;111.80;18.47;;;;;;;;;;5017159;28;20223;-56
2022/03/05 12:36:53;;;;;;;90.83;15.20;;;;;;;;;;5014511;28;20268;-56
2022/03/05 12:39:24;;;;;;;75.30;13.10;;;;;;;;;;5026585;28;20203;-56
2022/03/05 12:41:50;;;;;;;68.53;11.97;;;;;;;;;;5030170;28;20281;-55
2022/03/05 12:44:16;;;;;;;68.30;11.77;;;;;;;;;;5029473;28;20235;-55
2022/03/05 12:46:42;;;;;;;99.00;16.30;;;;;;;;;;5032386;28;20283;-56
2022/03/05 12:49:08;;;;;;;81.63;13.43;;;;;;;;;;5028687;28;20299;-56
2022/03/05 12:51:35;;;;;;;59.83;11.33;;;;;;;;;;5035610;28;20267;-54
2022/03/05 12:54:05;;;;;;;75.57;13.33;;;;;;;;;;5024655;28;20548;-55
2022/03/05 12:56:31;;;;;;;84.07;13.83;;;;;;;;;;5028977;28;20662;-54
2022/03/05 12:58:58;;;;;;;102.53;17.07;;;;;;;;;;5030812;28;20215;-57
2022/03/05 13:01:24;;;;;;;74.23;12.83;;;;;;;;;;5030419;28;20211;-54
2022/03/05 13:03:50;;;;;;;51.80;10.23;;;;;;;;;;5028365;28;20254;-54
2022/03/05 13:06:18;;;;;;;88.03;15.00;;;;;;;;;;5026264;28;20222;-56
2022/03/05 13:08:44;;;;;;;72.90;12.67;;;;;;;;;;5023229;28;20195;-58
2022/03/05 13:11:12;;;;;;;67.27;12.00;;;;;;;;;;5034548;28;20268;-55
2022/03/05 13:13:42;;;;;;;60.97;11.43;;;;;;;;;;5032916;28;20191;-54
2022/03/05 13:16:09;;;;;;;77.93;13.67;;;;;;;;;;5027102;28;20216;-58
2022/03/05 13:18:35;;;;;;;61.60;11.17;;;;;;;;;;5029577;28;20619;-54
2022/03/05 13:21:02;;;;;;;73.17;12.90;;;;;;;;;;5037776;28;20325;-58
2022/03/05 13:23:29;;;;;;;89.20;14.77;;;;;;;;;;5031468;28;20207;-55
2022/03/05 13:25:55;;;;;;;103.83;17.17;;;;;;;;;;5022608;28;20304;-54
2022/03/05 13:28:25;;;;;;;62.20;11.03;;;;;;;;;;5034627;28;20248;-54
2022/03/05 13:30:52;;;;;;;75.60;12.70;;;;;;;;;;5027631;28;20191;-55
2022/03/05 13:33:35;;;;;;;78.10;13.63;;;;;;;;;;5032001;28;20197;-55
2022/03/05 13:36:10;;;;;;;55.63;10.37;;;;;;;;;;5032744;28;20222;-54
2022/03/05 13:38:36;;;;;;;67.43;11.97;;;;;;;;;;5032449;28;20170;-54
2022/03/05 13:41:03;;;;;;;75.23;13.13;;;;;;;;;;5029017;28;20180;-54
2022/03/05 13:43:30;;;;;;;90.57;14.47;;;;;;;;;;5030511;28;20195;-55
2022/03/05 13:45:58;;;;;;;73.53;12.33;;;;;;;;;;5028587;28;20211;-55
2022/03/05 13:48:26;;;;;;;72.30;12.47;;;;;;;;;;5032289;28;20188;-58
2022/03/05 13:50:52;;;;;;;60.20;10.93;;;;;;;;;;5035057;28;20521;-58
2022/03/05 13:53:18;;;;;;;76.67;13.30;;;;;;;;;;5038350;28;20186;-56
2022/03/05 13:55:44;;;;;;;83.57;14.60;;;;;;;;;;5032837;28;20686;-57
2022/03/05 13:58:20;;;;;;;54.57;9.70;;;;;;;;;;5026938;28;20210;-56
2022/03/05 14:00:46;;;;;;;55.23;9.60;;;;;;;;;;5033248;28;20240;-56
2022/03/05 14:03:18;;;;;;;76.53;12.57;;;;;;;;;;5039708;28;20273;-57
2022/03/05 14:05:44;;;;;;;55.23;9.83;;;;;;;;;;5031384;28;20215;-56
2022/03/05 14:08:10;;;;;;;83.03;14.33;;;;;;;;;;5015380;28;20272;-58
2022/03/05 14:10:39;;;;;;;128.80;20.80;;;;;;;;;;5020856;28;22350;-58
2022/03/05 14:13:05;;;;;;;90.03;15.23;;;;;;;;;;5023384;28;20271;-55
2022/03/05 14:15:32;;;;;;;80.00;13.50;;;;;;;;;;5024878;28;20242;-56
2022/03/05 14:18:11;;;;;;;114.80;18.40;;;;;;;;;;5011074;28;20195;-56
2022/03/05 14:20:41;;;;;;;67.93;11.20;;;;;;;;;;5030076;28;20921;-56
2022/03/05 14:23:12;;;;;;;104.97;16.37;;;;;;;;;;5028904;28;20188;-58